Accueil
METAR-TAF:

METAR-TAF

Aéroports :

Buochs, Suisse

latitude: 46-58-28N, longitude: 8-23-49E, altitude: 449 m

Observation

Le bulletin a été fait il y a 10 minutes, à 01:20 UTC
Vent 3 kt de ouest/sud-ouest
Température 18°C
Humidité 68%
Pression 1015 hPa
Visibilité 10 km ou plus

METAR: LSZC 170120Z AUTO 25003KT 9999 NCD 18/12 Q1015

Heure: 03:30 (01:30 UTC)

Prévision

Le bulletin a été fait il y a 11 heures et 5 minutes, à 14:25 UTC
Prévision valable du 16 à 15 UTC au 16 à 24 UTC
Vent 3 kt de direction variable
Visibilité 10 km ou plus
Quelques nuages à une hauteur de 7000 ft
Probabilité 30% :
Temporairement
du 16 à 15 UTC au 16 à 21 UTC
Nuages épars à une hauteur de 6000 ft, Cumulus congestus.
averses de pluie

TAF: LSZC 161425Z 1615/1624 VRB03KT 9999 FEW070 PROB30 TEMPO 1615/1621 SHRA SCT060TCU

Observations et prévisions météorologiques de plus de 4000 aéroports (messages METAR et TAF).

Les stations disponibles sont représentées par des disques jaunes et rouges sur la carte.

Passer la souris dessus pour voir le nom de la station.

Cliquer dessus pour voir les observations et prévisions météorologiques.

Pour changer de carte: cliquez sur les boutons verts avec une croix noire pour zoomer, sur le bouton vert avec un tiret pour effectuer un zoom arrière, ou sur les flèches vertes pour les cartes adjacentes.


METAR-TAF: